Time;durP1;ratioP1;P1;durP2;ratioP2;P2;SDS_P1;SDS_P2;PMS_P1;PMS_P2;Temp;Humidity;BMP_temperature;BMP_pressure;BME280_temperature;BME280_humidity;BME280_pressure;Samples;Min_cycle;Max_cycle;Signal;HPM_P1;HPM_P2
2023/12/18 00:02:19;;;;;;;16.37;7.13;;;;;;;14.55;52.65;103290.72;5049534;28;20563;-79
2023/12/18 00:04:44;;;;;;;22.20;7.43;;;;;;;14.33;53.39;103279.91;5071244;28;20028;-79
2023/12/18 00:07:10;;;;;;;19.13;8.40;;;;;;;15.07;51.81;103280.78;5064818;28;20021;-79
2023/12/18 00:09:35;;;;;;;17.13;7.50;;;;;;;14.53;53.36;103271.38;5072378;28;20395;-78
2023/12/18 00:12:01;;;;;;;17.20;7.63;;;;;;;15.06;51.79;103273.75;5067529;28;20025;-79
2023/12/18 00:14:26;;;;;;;19.97;7.57;;;;;;;15.20;51.71;103273.00;5070039;28;20043;-79
2023/12/18 00:16:51;;;;;;;22.57;8.03;;;;;;;14.76;51.92;103275.19;5074399;28;20024;-78
2023/12/18 00:19:17;;;;;;;23.90;7.37;;;;;;;15.65;50.70;103269.00;5063690;28;20555;-79
2023/12/18 00:21:42;;;;;;;12.80;8.00;;;;;;;14.93;51.97;103272.75;5054846;28;20056;-79
2023/12/18 00:24:07;;;;;;;17.27;7.53;;;;;;;14.70;52.79;103269.84;5067478;28;20502;-79
2023/12/18 00:26:33;;;;;;;23.73;7.50;;;;;;;14.14;53.88;103275.25;5071079;28;20037;-78
2023/12/18 00:28:58;;;;;;;17.47;7.23;;;;;;;15.76;50.24;103256.75;5066338;28;20094;-79
2023/12/18 00:31:23;;;;;;;17.03;7.53;;;;;;;15.00;51.96;103263.16;5063179;28;20036;-79
2023/12/18 00:33:49;;;;;;;19.97;8.43;;;;;;;15.77;50.21;103258.53;5063460;28;20499;-79
2023/12/18 00:36:14;;;;;;;19.30;8.23;;;;;;;14.96;51.44;103258.75;5073276;28;20028;-79
2023/12/18 00:38:39;;;;;;;18.30;7.40;;;;;;;15.57;50.17;103249.59;5068366;28;20028;-78
2023/12/18 00:41:05;;;;;;;12.77;6.73;;;;;;;16.17;49.00;103246.47;5064526;28;20025;-79
2023/12/18 00:43:30;;;;;;;14.77;7.20;;;;;;;15.14;51.86;103252.75;5057113;28;20093;-78
2023/12/18 00:45:56;;;;;;;14.67;7.23;;;;;;;15.14;51.69;103243.97;5073522;28;20037;-79
2023/12/18 00:48:21;;;;;;;19.13;7.53;;;;;;;15.73;50.19;103245.28;5060136;28;20377;-79
2023/12/18 00:50:47;;;;;;;18.50;7.80;;;;;;;16.00;49.82;103251.66;5073388;28;20028;-79
2023/12/18 00:53:16;;;;;;;17.83;8.10;;;;;;;15.73;50.37;103251.47;5074083;28;20035;-79
2023/12/18 00:55:44;;;;;;;19.83;7.63;;;;;;;16.29;48.97;103251.81;5052966;28;20028;-79
2023/12/18 00:58:10;;;;;;;16.03;7.73;;;;;;;16.21;48.79;103251.78;5052291;28;20460;-79
2023/12/18 01:00:35;;;;;;;23.27;7.90;;;;;;;15.93;49.50;103248.97;5072892;28;20024;-79
2023/12/18 01:03:01;;;;;;;17.10;8.80;;;;;;;15.87;49.75;103253.34;5073583;28;20020;-79
2023/12/18 01:05:26;;;;;;;18.50;7.70;;;;;;;16.51;48.17;103257.16;5054233;28;20461;-79
2023/12/18 01:07:51;;;;;;;18.43;8.87;;;;;;;16.04;49.20;103248.16;5052255;28;20021;-79
2023/12/18 01:10:17;;;;;;;19.10;8.90;;;;;;;16.01;48.72;103243.75;5058963;28;20052;-79
2023/12/18 01:12:42;;;;;;;14.37;7.73;;;;;;;15.96;49.53;103247.25;5053397;28;20017;-79
2023/12/18 01:15:08;;;;;;;19.73;8.20;;;;;;;15.92;49.31;103243.69;5068857;28;20035;-79
2023/12/18 01:17:33;;;;;;;15.10;7.97;;;;;;;16.40;48.72;103234.28;5061521;28;20539;-79
2023/12/18 01:19:59;;;;;;;21.47;8.20;;;;;;;15.85;49.46;103228.72;5063259;28;20017;-79
2023/12/18 01:22:24;;;;;;;17.83;7.73;;;;;;;16.50;48.27;103231.66;5052272;28;20515;-78
2023/12/18 01:24:49;;;;;;;15.53;7.63;;;;;;;16.00;49.48;103234.06;5057045;28;20027;-79
2023/12/18 01:27:15;;;;;;;19.33;7.47;;;;;;;16.55;47.80;103235.19;5053251;28;20029;-79
2023/12/18 01:29:40;;;;;;;15.20;7.53;;;;;;;16.68;47.38;103228.16;5062982;28;20024;-79
2023/12/18 01:32:08;;;;;;;14.97;7.20;;;;;;;15.22;50.62;103242.28;5057195;28;20029;-78
2023/12/18 01:34:34;;;;;;;17.47;8.50;;;;;;;16.07;48.98;103233.25;5050992;28;20527;-79
2023/12/18 01:37:00;;;;;;;17.97;7.87;;;;;;;15.74;49.89;103231.25;5070686;28;20024;-79
2023/12/18 01:39:25;;;;;;;20.77;8.60;;;;;;;15.60;50.35;103233.78;5056015;28;20028;-79
2023/12/18 01:41:51;;;;;;;17.57;7.70;;;;;;;14.96;51.12;103245.56;5052688;28;20151;-79
2023/12/18 01:44:16;;;;;;;17.97;7.87;;;;;;;16.02;49.78;103236.72;5056713;28;20488;-79
2023/12/18 01:46:41;;;;;;;14.73;8.07;;;;;;;15.54;50.01;103236.41;5072604;28;20028;-79
2023/12/18 01:49:08;;;;;;;28.67;10.13;;;;;;;15.51;50.10;103233.72;5068074;28;20025;-79
2023/12/18 01:51:34;;;;;;;16.43;7.23;;;;;;;15.23;51.20;103244.03;5051122;28;20488;-79
2023/12/18 01:54:00;;;;;;;16.97;7.30;;;;;;;14.54;52.69;103237.16;5052592;28;20112;-79
2023/12/18 01:56:30;;;;;;;23.17;7.83;;;;;;;15.60;50.44;103234.66;5068597;28;20250;-79
2023/12/18 01:58:59;;;;;;;22.30;8.27;;;;;;;15.96;49.41;103234.94;5054126;28;20021;-79
2023/12/18 02:01:25;;;;;;;20.30;7.50;;;;;;;15.65;50.26;103242.63;5054086;28;20028;-79
2023/12/18 02:03:53;;;;;;;19.47;8.17;;;;;;;15.88;49.42;103252.47;5052105;28;20116;-79
2023/12/18 02:06:18;;;;;;;26.03;8.27;;;;;;;16.13;48.86;103239.41;5070682;28;20036;-78
2023/12/18 02:08:44;;;;;;;14.17;7.50;;;;;;;15.98;49.41;103246.38;5052740;28;20058;-79
2023/12/18 02:11:10;;;;;;;15.23;8.50;;;;;;;15.60;51.04;103242.56;5070275;28;20024;-79
2023/12/18 02:13:35;;;;;;;13.50;7.47;;;;;;;16.05;49.63;103232.34;5071324;28;20016;-79
2023/12/18 02:16:00;;;;;;;15.60;7.43;;;;;;;15.44;50.64;103228.41;5072708;28;20376;-79
2023/12/18 02:18:26;;;;;;;19.60;8.13;;;;;;;15.41;50.39;103230.13;5052103;28;20039;-79
2023/12/18 02:20:51;;;;;;;17.47;7.57;;;;;;;15.41;51.10;103217.88;5054483;28;20017;-79
2023/12/18 02:23:17;;;;;;;18.80;7.47;;;;;;;14.79;52.11;103231.34;5052099;28;20031;-79
2023/12/18 02:25:42;;;;;;;18.73;7.03;;;;;;;15.16;52.29;103222.03;5063070;28;20028;-79
2023/12/18 02:28:10;;;;;;;20.87;7.90;;;;;;;14.37;53.96;103221.19;5059003;28;20043;-79
2023/12/18 02:30:36;;;;;;;18.20;8.13;;;;;;;14.93;52.05;103214.81;5061702;28;20028;-79
2023/12/18 02:33:02;;;;;;;17.77;7.30;;;;;;;15.40;51.28;103209.91;5058646;28;20095;-79
2023/12/18 02:35:27;;;;;;;27.57;9.23;;;;;;;15.52;50.91;103214.41;5052244;28;20031;-78
2023/12/18 02:37:53;;;;;;;17.80;7.90;;;;;;;14.31;53.18;103229.00;5047804;28;20477;-79
2023/12/18 02:40:18;;;;;;;22.20;8.07;;;;;;;16.02;50.29;103215.59;5044396;28;20047;-79
2023/12/18 02:42:44;;;;;;;18.23;8.73;;;;;;;16.21;49.41;103206.03;5051346;28;20082;-79
2023/12/18 02:45:09;;;;;;;23.77;8.17;;;;;;;16.19;49.56;103205.16;5055378;28;20127;-79
2023/12/18 02:47:35;;;;;;;16.73;7.93;;;;;;;15.78;49.62;103204.03;5065223;28;20036;-79
2023/12/18 02:50:01;;;;;;;19.13;7.63;;;;;;;15.23;50.63;103202.75;5050629;28;20059;-79
2023/12/18 02:52:26;;;;;;;20.90;8.37;;;;;;;15.86;50.35;103199.72;5051331;28;20083;-79
2023/12/18 02:54:51;;;;;;;20.17;8.10;;;;;;;16.18;49.12;103208.66;5050310;28;20056;-79
2023/12/18 02:57:17;;;;;;;21.37;8.93;;;;;;;14.96;51.61;103213.97;5050366;28;20066;-79
2023/12/18 02:59:42;;;;;;;23.53;9.10;;;;;;;15.26;51.11;103212.44;5032081;28;20029;-81
2023/12/18 03:02:08;;;;;;;21.00;7.90;;;;;;;15.63;50.52;103212.72;5049128;28;20065;-79
2023/12/18 03:04:33;;;;;;;14.77;6.90;;;;;;;15.67;50.49;103206.59;5067279;28;20037;-79
2023/12/18 03:06:58;;;;;;;16.97;7.50;;;;;;;15.40;51.63;103200.28;5056451;28;20115;-79
2023/12/18 03:09:24;;;;;;;20.77;7.20;;;;;;;15.98;50.43;103204.19;5038764;28;20458;-79
2023/12/18 03:11:49;;;;;;;12.73;7.03;;;;;;;15.93;49.93;103208.53;5062494;28;20028;-79
2023/12/18 03:14:14;;;;;;;18.73;7.27;;;;;;;15.00;51.67;103218.41;5070409;28;20115;-79
2023/12/18 03:16:40;;;;;;;17.50;7.77;;;;;;;14.98;52.77;103217.47;5061323;28;20037;-79
2023/12/18 03:19:05;;;;;;;14.40;7.47;;;;;;;15.71;50.80;103205.75;5051256;28;20056;-79
2023/12/18 03:21:31;;;;;;;16.43;7.43;;;;;;;15.63;50.96;103206.56;5058682;28;20017;-72
2023/12/18 03:23:57;;;;;;;17.53;7.90;;;;;;;15.51;50.71;103202.09;5068777;28;20024;-71
2023/12/18 03:26:23;;;;;;;15.07;7.50;;;;;;;15.54;51.50;103200.38;5063083;28;20447;-69
2023/12/18 03:28:49;;;;;;;20.07;7.53;;;;;;;15.61;51.76;103203.94;5048922;28;20025;-72
2023/12/18 03:31:15;;;;;;;15.27;7.93;;;;;;;15.69;51.04;103191.69;5052068;28;20113;-72
2023/12/18 03:33:41;;;;;;;14.63;7.43;;;;;;;15.42;50.91;103193.25;5055565;28;20128;-72
2023/12/18 03:36:07;;;;;;;22.60;9.00;;;;;;;15.53;51.02;103195.09;5051917;28;20352;-72
2023/12/18 03:38:32;;;;;;;18.27;8.70;;;;;;;16.25;49.69;103186.69;5067971;28;20016;-73
2023/12/18 03:40:58;;;;;;;18.80;6.93;;;;;;;15.27;51.82;103182.59;5050071;28;20032;-72
2023/12/18 03:43:24;;;;;;;18.23;7.40;;;;;;;16.19;49.97;103181.41;5067285;28;20103;-72
2023/12/18 03:45:49;;;;;;;16.13;7.23;;;;;;;15.87;50.19;103184.78;5068993;28;20492;-72
2023/12/18 03:48:15;;;;;;;23.73;7.30;;;;;;;15.72;51.08;103181.16;5045088;28;20087;-72
2023/12/18 03:50:41;;;;;;;18.00;7.93;;;;;;;14.98;52.92;103196.41;5047925;28;20520;-72
2023/12/18 03:53:08;;;;;;;14.43;7.43;;;;;;;14.80;52.75;103191.00;5066338;28;20131;-72
2023/12/18 03:55:34;;;;;;;24.83;7.87;;;;;;;15.26;52.51;103181.75;5070398;28;20028;-72
2023/12/18 03:58:00;;;;;;;17.47;7.37;;;;;;;15.56;51.50;103179.28;5052876;28;20485;-72
2023/12/18 04:00:26;;;;;;;21.43;7.50;;;;;;;14.30;54.15;103177.28;5050095;28;20017;-72
2023/12/18 04:02:52;;;;;;;16.73;7.17;;;;;;;14.56;54.96;103180.19;5057960;28;20155;-72
2023/12/18 04:05:17;;;;;;;18.37;7.73;;;;;;;13.88;56.31;103179.34;5044055;28;20528;-72
2023/12/18 04:07:43;;;;;;;16.07;8.03;;;;;;;15.40;51.98;103178.28;5045883;28;20381;-72
2023/12/18 04:10:08;;;;;;;21.90;7.67;;;;;;;15.22;53.41;103173.78;5048285;28;20021;-72
2023/12/18 04:12:34;;;;;;;25.27;8.00;;;;;;;14.99;53.10;103176.22;5057903;28;20455;-71
2023/12/18 04:15:03;;;;;;;17.60;7.50;;;;;;;14.92;54.49;103164.78;5065095;28;20492;-72
2023/12/18 04:17:28;;;;;;;15.20;7.23;;;;;;;14.16;56.78;103176.22;5067315;28;20116;-72
2023/12/18 04:19:54;;;;;;;23.50;7.90;;;;;;;14.39;54.82;103181.75;5049345;28;20096;-72
2023/12/18 04:22:19;;;;;;;19.03;6.93;;;;;;;14.90;54.72;103166.50;5050647;28;20025;-72
2023/12/18 04:24:45;;;;;;;24.13;7.50;;;;;;;15.55;52.46;103161.72;5050041;28;20241;-72
2023/12/18 04:27:10;;;;;;;18.10;7.40;;;;;;;15.41;52.37;103157.25;5049745;28;20024;-72
2023/12/18 04:29:37;;;;;;;13.97;7.50;;;;;;;16.17;50.63;103157.66;5048515;28;20032;-72
2023/12/18 04:32:04;;;;;;;19.93;7.70;;;;;;;16.65;49.64;103162.16;5048209;28;20033;-72
2023/12/18 04:34:29;;;;;;;26.17;8.33;;;;;;;15.80;51.69;103162.78;5067722;28;20365;-72
2023/12/18 04:36:54;;;;;;;16.30;7.93;;;;;;;16.23;50.42;103162.94;5061645;28;20036;-72
2023/12/18 04:39:20;;;;;;;19.77;8.43;;;;;;;15.25;52.84;103165.91;5050965;28;20515;-72
2023/12/18 04:41:45;;;;;;;17.80;7.47;;;;;;;15.90;51.74;103168.97;5064441;28;20021;-72
2023/12/18 04:44:10;;;;;;;17.17;8.27;;;;;;;16.63;49.70;103172.72;5066614;28;20047;-72
2023/12/18 04:46:36;;;;;;;16.83;7.67;;;;;;;14.95;53.03;103180.59;5068991;28;20020;-72
2023/12/18 04:49:02;;;;;;;23.70;9.10;;;;;;;16.23;50.71;103183.19;5050028;28;20376;-72
2023/12/18 04:51:28;;;;;;;18.23;7.93;;;;;;;15.09;52.96;103188.63;5049253;28;20033;-72
2023/12/18 04:53:54;;;;;;;18.80;8.30;;;;;;;15.29;52.96;103186.16;5064517;28;20473;-71
2023/12/18 04:56:19;;;;;;;17.63;8.50;;;;;;;15.07;53.17;103191.22;5072189;28;20046;-72
2023/12/18 04:58:45;;;;;;;18.93;8.90;;;;;;;15.78;51.32;103181.19;5058721;28;20188;-71
2023/12/18 05:01:10;;;;;;;17.27;8.47;;;;;;;15.48;52.07;103183.63;5050901;28;20055;-72
2023/12/18 05:03:36;;;;;;;19.03;8.53;;;;;;;14.88;53.39;103184.91;5060554;28;20760;-72
2023/12/18 05:06:01;;;;;;;18.33;9.57;;;;;;;15.27;53.00;103167.66;5051354;28;20112;-72
2023/12/18 05:08:27;;;;;;;19.90;9.30;;;;;;;14.96;53.68;103171.84;5050831;28;20040;-72
2023/12/18 05:10:52;;;;;;;24.00;9.73;;;;;;;14.96;53.43;103156.03;5052960;28;20108;-71
2023/12/18 05:13:17;;;;;;;17.30;9.13;;;;;;;14.58;53.76;103160.00;5057660;28;20135;-71
2023/12/18 05:15:43;;;;;;;24.27;9.27;;;;;;;14.99;53.18;103156.06;5066126;28;20028;-71
2023/12/18 05:18:08;;;;;;;20.63;7.77;;;;;;;14.91;53.31;103157.75;5057072;28;20021;-71
2023/12/18 05:20:34;;;;;;;22.87;8.70;;;;;;;15.18;52.78;103151.81;5057297;28;20499;-71
2023/12/18 05:23:02;;;;;;;18.47;9.40;;;;;;;15.64;51.77;103151.22;5037641;28;20031;-70
2023/12/18 05:25:27;;;;;;;18.97;8.03;;;;;;;15.04;53.25;103159.63;5071666;28;20035;-71
2023/12/18 05:27:53;;;;;;;22.33;9.57;;;;;;;15.76;51.23;103156.56;5056468;28;20025;-71
2023/12/18 05:30:18;;;;;;;19.87;8.33;;;;;;;15.92;51.02;103151.38;5071268;28;20025;-70
2023/12/18 05:32:43;;;;;;;20.53;8.67;;;;;;;14.82;53.12;103157.66;5058929;28;20077;-71
2023/12/18 05:35:09;;;;;;;17.67;8.07;;;;;;;15.08;52.95;103150.88;5085267;28;20495;-71
2023/12/18 05:37:34;;;;;;;23.33;9.13;;;;;;;15.15;53.67;103156.16;5058291;28;20497;-71
2023/12/18 05:40:03;;;;;;;18.67;8.47;;;;;;;15.49;52.57;103156.41;5061587;28;20100;-71
2023/12/18 05:42:28;;;;;;;17.37;8.20;;;;;;;16.18;50.48;103158.53;5052202;28;20044;-70
2023/12/18 05:44:54;;;;;;;23.53;8.63;;;;;;;15.04;52.08;103164.88;5064225;28;20512;-71
2023/12/18 05:47:19;;;;;;;24.63;9.47;;;;;;;15.12;52.59;103164.91;5057749;28;20403;-71
2023/12/18 05:49:44;;;;;;;20.90;9.90;;;;;;;15.86;51.44;103167.19;5063724;28;20036;-71
2023/12/18 05:52:10;;;;;;;16.80;9.20;;;;;;;15.14;52.97;103167.56;5067106;28;20029;-71
2023/12/18 05:54:37;;;;;;;22.00;10.10;;;;;;;15.49;52.51;103161.69;5062611;28;20124;-69
2023/12/18 05:57:02;;;;;;;17.93;8.33;;;;;;;15.91;50.71;103173.38;5063926;28;20017;-71
2023/12/18 05:59:28;;;;;;;16.03;8.50;;;;;;;15.80;51.26;103167.16;5051044;28;20033;-71
2023/12/18 06:01:53;;;;;;;19.23;8.77;;;;;;;15.47;51.49;103166.03;5052358;28;20025;-71
2023/12/18 06:04:18;;;;;;;20.20;8.93;;;;;;;15.31;51.88;103173.84;5055995;28;20686;-71
2023/12/18 06:06:44;;;;;;;19.67;8.10;;;;;;;15.66;52.37;103173.22;5051346;28;20063;-71
2023/12/18 06:09:09;;;;;;;20.33;8.97;;;;;;;15.36;51.93;103171.25;5055818;28;20055;-70
2023/12/18 06:11:34;;;;;;;24.63;9.47;;;;;;;15.27;52.64;103172.06;5065671;28;20057;-71
2023/12/18 06:14:00;;;;;;;25.80;10.10;;;;;;;15.83;51.12;103167.19;5052010;28;20029;-71
2023/12/18 06:16:25;;;;;;;19.27;9.10;;;;;;;15.50;52.50;103163.47;5069881;28;20099;-71
2023/12/18 06:18:51;;;;;;;17.70;8.33;;;;;;;15.39;52.22;103164.25;5050240;28;20024;-71
2023/12/18 06:21:16;;;;;;;18.33;8.77;;;;;;;15.50;51.87;103168.72;5067549;28;20049;-71
2023/12/18 06:23:43;;;;;;;17.23;8.63;;;;;;;14.89;54.26;103173.53;5051814;28;20017;-71
2023/12/18 06:26:09;;;;;;;19.57;9.47;;;;;;;15.51;52.23;103163.47;5059911;28;20380;-72
2023/12/18 06:28:34;;;;;;;16.63;8.50;;;;;;;15.51;53.01;103159.91;5050980;28;20029;-71
2023/12/18 06:31:00;;;;;;;18.87;8.30;;;;;;;15.80;51.88;103161.88;5048202;28;20037;-71
2023/12/18 06:33:25;;;;;;;22.57;8.80;;;;;;;15.32;52.83;103165.09;5029671;28;20488;-71
2023/12/18 06:35:51;;;;;;;21.07;8.97;;;;;;;16.02;51.42;103153.22;5050622;28;20064;-71
2023/12/18 06:38:16;;;;;;;26.23;9.20;;;;;;;16.28;50.37;103160.34;5051115;28;20021;-71
2023/12/18 06:40:41;;;;;;;17.40;8.07;;;;;;;15.16;53.92;103168.47;5063768;28;20111;-71
2023/12/18 06:43:07;;;;;;;19.53;8.87;;;;;;;14.76;54.80;103174.28;5049487;28;20024;-72
2023/12/18 06:45:32;;;;;;;19.17;8.57;;;;;;;15.54;52.77;103158.19;5054461;28;20077;-71
2023/12/18 06:47:57;;;;;;;25.97;8.77;;;;;;;15.07;54.03;103159.63;5050246;28;20369;-71
2023/12/18 06:50:23;;;;;;;20.20;7.93;;;;;;;14.83;54.52;103169.94;5048612;28;20024;-71
2023/12/18 06:52:48;;;;;;;24.07;9.80;;;;;;;14.55;54.76;103170.53;5051065;28;20036;-71
2023/12/18 06:55:14;;;;;;;19.50;8.70;;;;;;;14.80;55.45;103164.66;5057216;28;20101;-72
2023/12/18 06:57:39;;;;;;;20.80;8.33;;;;;;;15.51;53.96;103162.56;5047109;28;20030;-71
2023/12/18 07:00:05;;;;;;;22.13;9.57;;;;;;;15.90;51.71;103169.84;5058121;28;20387;-72
2023/12/18 07:02:31;;;;;;;20.20;8.90;;;;;;;15.41;52.66;103159.88;5069039;28;20024;-72
2023/12/18 07:04:56;;;;;;;23.67;8.87;;;;;;;15.12;53.83;103151.75;5050075;28;20040;-72
2023/12/18 07:07:22;;;;;;;18.57;7.90;;;;;;;14.80;54.94;103156.75;5046867;28;20104;-72
2023/12/18 07:09:47;;;;;;;20.70;9.33;;;;;;;15.25;53.93;103158.00;5052378;28;20079;-72
2023/12/18 07:12:13;;;;;;;18.27;8.10;;;;;;;14.27;56.18;103158.78;5037580;28;20032;-72
2023/12/18 07:14:41;;;;;;;15.27;8.63;;;;;;;14.29;56.01;103161.44;5045751;28;20022;-72
2023/12/18 07:17:06;;;;;;;19.87;8.73;;;;;;;14.86;55.00;103146.28;5048340;28;20074;-72
2023/12/18 07:19:32;;;;;;;17.37;8.53;;;;;;;15.24;53.78;103153.59;5048437;28;20289;-72
2023/12/18 07:21:57;;;;;;;19.87;8.10;;;;;;;15.09;54.04;103149.97;5046086;28;20032;-72
2023/12/18 07:24:23;;;;;;;19.90;8.00;;;;;;;14.68;55.07;103161.03;5028899;28;20051;-71
2023/12/18 07:26:49;;;;;;;20.97;8.40;;;;;;;15.16;54.52;103147.41;5062439;28;20036;-71
2023/12/18 07:29:14;;;;;;;20.40;8.80;;;;;;;14.85;55.07;103155.03;5044656;28;20473;-71
2023/12/18 07:31:39;;;;;;;19.23;7.83;;;;;;;15.46;54.35;103145.88;5056138;28;20025;-71
2023/12/18 07:34:05;;;;;;;23.33;8.87;;;;;;;14.89;54.48;103146.28;5050026;28;20078;-72
2023/12/18 07:36:34;;;;;;;21.00;8.73;;;;;;;15.57;53.03;103145.03;5062274;28;20521;-72
2023/12/18 07:39:00;;;;;;;21.43;8.30;;;;;;;14.60;56.31;103149.50;5059956;28;20544;-72
2023/12/18 07:41:25;;;;;;;20.73;8.70;;;;;;;15.16;54.10;103148.28;5050554;28;20038;-72
2023/12/18 07:43:51;;;;;;;21.57;8.30;;;;;;;15.04;54.54;103154.34;5039705;28;20060;-72
2023/12/18 07:46:20;;;;;;;22.60;8.57;;;;;;;15.22;54.17;103148.34;5074802;28;20028;-72
2023/12/18 07:48:49;;;;;;;16.10;7.90;;;;;;;16.10;51.62;103151.47;5068913;28;20078;-72
2023/12/18 07:51:15;;;;;;;19.77;8.40;;;;;;;15.98;51.65;103146.16;5057918;28;20044;-72
2023/12/18 07:53:40;;;;;;;19.97;8.90;;;;;;;15.51;52.80;103157.28;5048509;28;20041;-72
2023/12/18 07:56:06;;;;;;;22.27;8.97;;;;;;;15.46;53.22;103145.88;5046775;28;20039;-71
2023/12/18 07:58:31;;;;;;;19.27;8.63;;;;;;;14.59;55.78;103166.19;5063276;28;20036;-72
2023/12/18 08:00:56;;;;;;;21.77;8.73;;;;;;;14.97;54.37;103168.31;5050754;28;20472;-72
2023/12/18 08:03:22;;;;;;;20.77;7.87;;;;;;;14.43;55.74;103176.53;5064293;28;20025;-71
2023/12/18 08:05:47;;;;;;;19.03;7.63;;;;;;;14.80;55.82;103175.19;5048422;28;20036;-72
2023/12/18 08:08:13;;;;;;;14.63;8.17;;;;;;;16.01;51.62;103158.47;5043666;28;20029;-69
2023/12/18 08:10:38;;;;;;;17.87;8.50;;;;;;;15.19;52.97;103153.56;5047204;28;20041;-70
2023/12/18 08:13:03;;;;;;;18.30;7.90;;;;;;;15.16;54.36;103157.94;5062084;28;20115;-70
2023/12/18 08:15:29;;;;;;;20.10;8.57;;;;;;;15.16;54.24;103164.06;5048776;28;20396;-70
2023/12/18 08:17:54;;;;;;;17.67;8.37;;;;;;;14.40;55.68;103162.47;5067473;28;20038;-70
2023/12/18 08:20:20;;;;;;;22.10;9.27;;;;;;;14.89;55.02;103154.19;5051318;28;20056;-70
2023/12/18 08:22:45;;;;;;;17.67;8.20;;;;;;;14.92;55.02;103159.50;5058624;28;20076;-70
2023/12/18 08:25:10;;;;;;;20.20;8.33;;;;;;;14.41;56.14;103157.22;5043801;28;20032;-71
2023/12/18 08:27:36;;;;;;;19.80;8.47;;;;;;;14.85;55.27;103170.81;5048878;28;20136;-70
2023/12/18 08:30:06;;;;;;;16.20;8.60;;;;;;;15.13;54.67;103165.81;5067311;28;20037;-71
2023/12/18 08:32:32;;;;;;;19.10;8.53;;;;;;;15.21;54.24;103158.88;5047969;28;20539;-70
2023/12/18 08:35:00;;;;;;;19.27;9.43;;;;;;;14.96;54.76;103163.03;5042401;28;20056;-70
2023/12/18 08:37:26;;;;;;;17.13;8.20;;;;;;;14.59;55.31;103160.91;5041460;28;20033;-71
2023/12/18 08:39:51;;;;;;;22.20;8.27;;;;;;;14.72;56.15;103162.81;5037947;28;20473;-70
2023/12/18 08:42:17;;;;;;;20.53;8.73;;;;;;;14.52;56.27;103164.31;5057334;28;20032;-71
2023/12/18 08:44:42;;;;;;;16.00;7.53;;;;;;;14.35;56.73;103167.66;5051218;28;20496;-72
2023/12/18 08:47:08;;;;;;;21.53;8.60;;;;;;;14.69;56.57;103157.53;5071320;28;20032;-71
2023/12/18 08:49:33;;;;;;;18.27;8.37;;;;;;;14.02;57.08;103153.25;5071519;28;20052;-71
2023/12/18 08:51:59;;;;;;;28.10;8.57;;;;;;;14.50;56.40;103151.16;5054724;28;20048;-71
2023/12/18 08:54:24;;;;;;;23.53;10.10;;;;;;;14.48;55.81;103152.00;5057932;28;20056;-71
2023/12/18 08:56:51;;;;;;;14.40;7.57;;;;;;;14.80;56.46;103148.88;5052026;28;20060;-71
2023/12/18 08:59:17;;;;;;;19.23;8.57;;;;;;;14.72;56.02;103147.03;5051537;28;20029;-71
2023/12/18 09:01:43;;;;;;;17.77;9.23;;;;;;;15.20;54.26;103139.53;5036007;28;20029;-70
2023/12/18 09:04:09;;;;;;;27.43;9.03;;;;;;;14.93;54.72;103129.66;5070397;28;20020;-71
2023/12/18 09:06:37;;;;;;;19.67;9.50;;;;;;;15.51;53.97;103133.56;5031110;28;20144;-71
2023/12/18 09:09:03;;;;;;;20.63;9.20;;;;;;;15.07;54.92;103125.38;5047216;28;20041;-71
2023/12/18 09:11:33;;;;;;;23.83;9.43;;;;;;;15.31;53.85;103123.78;5044863;28;20107;-71
2023/12/18 09:13:58;;;;;;;17.23;8.63;;;;;;;14.42;55.94;103130.06;5061719;28;20111;-71
2023/12/18 09:16:24;;;;;;;24.97;9.97;;;;;;;14.52;55.42;103128.41;5063980;28;20159;-71
2023/12/18 09:18:49;;;;;;;17.90;8.97;;;;;;;15.02;53.89;103124.47;5051931;28;20473;-71
2023/12/18 09:21:14;;;;;;;17.13;8.77;;;;;;;14.74;55.02;103129.50;5049640;28;20395;-71
2023/12/18 09:23:41;;;;;;;24.13;9.03;;;;;;;13.29;59.22;103138.19;5054251;28;20029;-71
2023/12/18 09:26:06;;;;;;;19.60;8.83;;;;;;;14.50;55.84;103137.13;5052049;28;20029;-71
2023/12/18 09:28:31;;;;;;;27.43;8.83;;;;;;;14.81;55.10;103134.81;5057188;28;20507;-71
2023/12/18 09:30:57;;;;;;;19.03;8.67;;;;;;;14.25;56.99;103136.88;5070908;28;20024;-71
2023/12/18 09:33:22;;;;;;;17.80;8.33;;;;;;;14.54;55.33;103136.31;5055726;28;20032;-71
2023/12/18 09:35:48;;;;;;;21.90;9.40;;;;;;;14.93;55.63;103125.28;5049656;28;20032;-71
2023/12/18 09:38:13;;;;;;;18.37;9.23;;;;;;;14.28;56.02;103130.75;5054894;28;20450;-71
2023/12/18 09:40:43;;;;;;;17.37;8.67;;;;;;;15.01;55.32;103132.34;5065315;28;20039;-71
2023/12/18 09:43:09;;;;;;;20.40;9.13;;;;;;;14.51;55.34;103138.91;5053050;28;20449;-71
2023/12/18 09:45:35;;;;;;;21.10;8.93;;;;;;;15.22;54.71;103126.34;5070852;28;20079;-71
2023/12/18 09:48:01;;;;;;;22.43;8.80;;;;;;;14.96;55.17;103129.69;5058534;28;20105;-71
2023/12/18 09:50:27;;;;;;;26.10;9.57;;;;;;;14.84;54.65;103126.97;5050854;28;20120;-71
2023/12/18 09:53:02;;;;;;;19.83;9.63;;;;;;;14.62;56.44;103125.81;5050586;28;20485;-71
2023/12/18 09:55:32;;;;;;;19.10;9.93;;;;;;;14.13;58.22;103132.34;5033610;28;20037;-71
2023/12/18 09:58:00;;;;;;;17.40;9.03;;;;;;;14.54;57.00;103133.66;5049886;28;20028;-71
2023/12/18 10:00:26;;;;;;;15.03;9.07;;;;;;;14.69;55.14;103125.94;5057414;28;20043;-70
2023/12/18 10:02:54;;;;;;;20.70;9.80;;;;;;;14.96;55.24;103121.78;5047322;28;20018;-71
2023/12/18 10:05:20;;;;;;;19.67;8.60;;;;;;;15.41;53.74;103117.72;5047453;28;20028;-72
2023/12/18 10:07:45;;;;;;;17.70;9.07;;;;;;;15.21;55.11;103109.69;5049671;28;20028;-71
2023/12/18 10:10:11;;;;;;;18.60;9.33;;;;;;;15.56;54.25;103111.63;5063390;28;20484;-71
2023/12/18 10:12:38;;;;;;;18.10;8.40;;;;;;;15.42;53.56;103110.69;5072036;28;20380;-72
2023/12/18 10:15:06;;;;;;;21.60;9.53;;;;;;;15.39;53.47;103106.28;5059812;28;20053;-71
2023/12/18 10:17:33;;;;;;;21.83;9.77;;;;;;;15.36;53.74;103111.53;5050356;28;20025;-72
2023/12/18 10:20:03;;;;;;;22.30;9.53;;;;;;;15.41;53.83;103106.28;5049694;28;20030;-71
2023/12/18 10:22:29;;;;;;;19.43;8.73;;;;;;;15.72;53.44;103096.78;5030659;28;20032;-72
2023/12/18 10:24:57;;;;;;;22.77;8.97;;;;;;;16.01;52.98;103088.13;5048950;28;20024;-72
2023/12/18 10:27:22;;;;;;;17.20;8.57;;;;;;;14.96;54.26;103082.28;5059357;28;20481;-71
2023/12/18 10:29:48;;;;;;;25.43;9.40;;;;;;;15.05;54.36;103082.34;5040888;28;20040;-71
2023/12/18 10:32:13;;;;;;;20.33;8.90;;;;;;;15.96;53.09;103087.22;5050663;28;20020;-72
2023/12/18 10:34:39;;;;;;;23.27;10.30;;;;;;;15.60;53.08;103081.78;5046423;28;20124;-72
2023/12/18 10:37:05;;;;;;;23.00;9.93;;;;;;;15.51;53.65;103070.31;5046029;28;20484;-72
2023/12/18 10:39:35;;;;;;;23.23;9.97;;;;;;;16.00;52.01;103067.91;5054170;28;20047;-71
2023/12/18 10:42:04;;;;;;;24.00;10.60;;;;;;;15.01;54.37;103059.50;5059531;28;20028;-71
2023/12/18 10:44:32;;;;;;;21.83;9.40;;;;;;;15.38;54.21;103064.13;5055947;28;20076;-72
2023/12/18 10:47:00;;;;;;;24.50;10.90;;;;;;;14.28;55.50;103065.88;5066493;28;20024;-72
2023/12/18 10:49:28;;;;;;;27.00;10.57;;;;;;;15.03;54.88;103055.13;5052120;28;20032;-72
2023/12/18 10:51:55;;;;;;;24.03;10.80;;;;;;;15.03;55.32;103046.31;5047540;28;20104;-72
2023/12/18 10:54:21;;;;;;;22.77;10.73;;;;;;;15.57;53.55;103054.53;5048753;28;20032;-72
2023/12/18 10:56:48;;;;;;;19.30;9.33;;;;;;;15.66;53.53;103056.31;5048720;28;20032;-72
2023/12/18 10:59:17;;;;;;;28.97;11.47;;;;;;;14.84;55.74;103062.00;5022293;28;20029;-72
2023/12/18 11:01:44;;;;;;;19.70;9.97;;;;;;;14.83;55.18;103057.59;5063441;28;20029;-72
2023/12/18 11:04:12;;;;;;;32.87;10.83;;;;;;;15.38;53.71;103059.72;5049628;28;20480;-72
2023/12/18 11:06:39;;;;;;;21.57;11.03;;;;;;;15.10;54.73;103054.28;5044918;28;20420;-72
2023/12/18 11:09:05;;;;;;;25.67;11.57;;;;;;;14.74;55.90;103054.91;5045670;28;20018;-71
2023/12/18 11:11:32;;;;;;;26.30;9.70;;;;;;;14.52;56.03;103054.72;5069747;28;20032;-71